createdAt,value
2023-04-11T00:02:23.443Z,49.00
2023-04-11T00:04:54.983Z,49.00
2023-04-11T00:07:22.389Z,48.90
2023-04-11T00:09:49.588Z,49.00
2023-04-11T00:12:16.933Z,49.10
2023-04-11T00:14:45.323Z,48.90
2023-04-11T00:17:12.630Z,49.00
2023-04-11T00:19:43.296Z,49.20
2023-04-11T00:22:11.355Z,49.10
2023-04-11T00:24:38.588Z,49.20
2023-04-11T00:27:06.446Z,49.10
2023-04-11T00:29:34.174Z,49.40
2023-04-11T00:32:01.433Z,49.20
2023-04-11T00:34:28.935Z,49.30
2023-04-11T00:36:57.705Z,49.30
2023-04-11T00:39:26.407Z,49.40
2023-04-11T00:41:53.707Z,49.30
2023-04-11T00:44:22.332Z,49.10
2023-04-11T00:46:49.756Z,49.20
2023-04-11T00:49:16.961Z,49.20
2023-04-11T00:51:44.157Z,49.30
2023-04-11T00:54:13.182Z,49.40
2023-04-11T00:56:40.651Z,49.20
2023-04-11T00:59:07.921Z,49.30
2023-04-11T01:01:36.343Z,49.30
2023-04-11T01:04:05.529Z,49.40
2023-04-11T01:06:33.613Z,49.30
2023-04-11T01:09:00.963Z,49.70
2023-04-11T01:11:29.496Z,49.70
2023-04-11T01:13:56.805Z,49.60
2023-04-11T01:16:24.245Z,49.70
2023-04-11T01:18:51.656Z,49.90
2023-04-11T01:21:20.075Z,50.10
2023-04-11T01:23:48.867Z,50.20
2023-04-11T01:26:16.245Z,50.10
2023-04-11T01:28:43.525Z,50.10
2023-04-11T01:31:10.884Z,50.10
2023-04-11T01:33:38.644Z,50.20
2023-04-11T01:36:06.833Z,50.40
2023-04-11T01:38:34.093Z,50.30
2023-04-11T01:41:02.948Z,50.30
2023-04-11T01:43:30.271Z,50.30
2023-04-11T01:45:57.862Z,50.10
2023-04-11T01:48:25.177Z,50.20
2023-04-11T01:50:53.034Z,50.30
2023-04-11T01:53:20.322Z,50.20
2023-04-11T01:55:47.522Z,50.30
2023-04-11T01:58:16.343Z,50.10
2023-04-11T02:00:43.661Z,50.40
2023-04-11T02:03:12.169Z,50.40
2023-04-11T02:05:39.715Z,50.40
2023-04-11T02:08:06.945Z,50.40
2023-04-11T02:10:34.169Z,50.20
2023-04-11T02:13:01.665Z,50.30
2023-04-11T02:15:30.277Z,50.30
2023-04-11T02:18:00.134Z,50.70
2023-04-11T02:20:27.948Z,50.80
2023-04-11T02:22:55.254Z,50.70
2023-04-11T02:25:22.446Z,50.80
2023-04-11T02:27:49.649Z,50.80
2023-04-11T02:30:16.844Z,50.80
2023-04-11T02:32:46.570Z,50.90
2023-04-11T02:35:14.645Z,51.00
2023-04-11T02:37:42.307Z,51.40
2023-04-11T02:40:10.298Z,51.20
2023-04-11T02:42:40.634Z,51.20
2023-04-11T02:45:08.993Z,51.10
2023-04-11T02:47:36.545Z,51.30
2023-04-11T02:50:09.632Z,51.30
2023-04-11T02:52:42.741Z,51.30
2023-04-11T02:55:11.482Z,51.30
2023-04-11T02:57:39.207Z,51.40
2023-04-11T03:00:10.574Z,51.40
2023-04-11T03:02:51.077Z,51.50
2023-04-11T03:05:23.672Z,51.80
2023-04-11T03:07:53.772Z,51.80
2023-04-11T03:10:21.045Z,51.70
2023-04-11T03:12:48.466Z,51.80
2023-04-11T03:15:17.593Z,51.90
2023-04-11T03:17:44.860Z,52.00
2023-04-11T03:20:19.461Z,52.00
2023-04-11T03:22:50.780Z,52.00
2023-04-11T03:25:19.605Z,52.10
2023-04-11T03:27:48.993Z,51.90
2023-04-11T03:30:16.369Z,52.00
2023-04-11T03:32:46.378Z,52.00
2023-04-11T03:35:14.807Z,52.00
2023-04-11T03:37:46.063Z,52.00
2023-04-11T03:40:14.809Z,52.10
2023-04-11T03:42:47.084Z,52.20
2023-04-11T03:45:18.502Z,52.30
2023-04-11T03:47:46.910Z,52.30
2023-04-11T03:50:17.704Z,52.30
2023-04-11T03:52:49.579Z,52.50
2023-04-11T03:55:18.647Z,52.40
2023-04-11T03:57:46.252Z,52.60
2023-04-11T04:00:14.760Z,52.70
2023-04-11T04:02:54.950Z,52.80
2023-04-11T04:05:22.926Z,53.50
2023-04-11T04:07:50.736Z,53.90
2023-04-11T04:10:26.802Z,54.50
2023-04-11T04:12:55.401Z,54.00
2023-04-11T04:15:32.718Z,54.00
2023-04-11T04:18:01.464Z,54.30
2023-04-11T04:20:41.791Z,54.50
2023-04-11T04:23:09.372Z,54.30
2023-04-11T04:25:51.906Z,54.40
2023-04-11T04:28:26.076Z,54.60
2023-04-11T04:30:58.017Z,54.90
2023-04-11T04:33:27.848Z,54.90
2023-04-11T04:36:00.075Z,55.60
2023-04-11T04:38:30.805Z,56.00
2023-04-11T04:41:01.024Z,56.50
2023-04-11T04:43:32.375Z,57.10
2023-04-11T04:46:11.624Z,57.80
2023-04-11T04:48:52.483Z,58.40
2023-04-11T04:51:19.749Z,59.10
2023-04-11T04:53:47.736Z,58.80
2023-04-11T04:56:17.018Z,60.10
2023-04-11T04:58:47.443Z,60.50
2023-04-11T05:01:17.084Z,60.10
2023-04-11T05:03:46.829Z,60.80
2023-04-11T05:06:21.340Z,61.80
2023-04-11T05:08:50.184Z,61.70
2023-04-11T05:11:18.768Z,62.50
2023-04-11T05:13:46.232Z,62.20
2023-04-11T05:16:13.444Z,62.50
2023-04-11T05:18:41.068Z,62.40
2023-04-11T05:21:08.592Z,63.40
2023-04-11T05:23:40.564Z,63.30
2023-04-11T05:26:08.305Z,64.10
2023-04-11T05:28:38.257Z,64.50
2023-04-11T05:31:11.895Z,65.00
2023-04-11T05:33:41.859Z,65.20
2023-04-11T05:36:14.262Z,65.40
2023-04-11T05:38:42.204Z,65.90
2023-04-11T05:41:10.183Z,65.60
2023-04-11T05:43:38.960Z,65.80
2023-04-11T05:46:07.844Z,66.40
2023-04-11T05:48:35.809Z,66.50
2023-04-11T05:51:03.096Z,67.10
2023-04-11T05:53:30.387Z,67.60
2023-04-11T05:55:57.992Z,68.20
2023-04-11T05:58:25.623Z,68.50
2023-04-11T06:00:54.143Z,68.90
2023-04-11T06:03:21.827Z,69.20
2023-04-11T06:05:49.219Z,69.00
2023-04-11T06:08:16.501Z,69.30
2023-04-11T06:10:43.698Z,70.00
2023-04-11T06:13:10.868Z,70.00
2023-04-11T06:15:38.436Z,70.80
2023-04-11T06:18:07.071Z,70.30
2023-04-11T06:20:34.316Z,71.00
2023-04-11T06:23:01.783Z,71.70
2023-04-11T06:25:29.039Z,70.90
2023-04-11T06:27:56.247Z,71.40
2023-04-11T06:30:23.570Z,70.80
2023-04-11T06:32:50.987Z,70.70
2023-04-11T06:35:20.629Z,71.50
2023-04-11T06:37:47.919Z,71.50
2023-04-11T06:40:17.178Z,72.10
2023-04-11T06:42:44.468Z,71.70
2023-04-11T06:45:12.144Z,71.80
2023-04-11T06:47:39.546Z,71.40
2023-04-11T06:50:07.978Z,71.00
2023-04-11T06:52:36.979Z,71.20
2023-04-11T06:55:07.109Z,71.70
2023-04-11T06:57:34.657Z,71.20
2023-04-11T07:00:02.029Z,71.10
2023-04-11T07:02:29.529Z,71.30
2023-04-11T07:04:56.913Z,71.60
2023-04-11T07:07:24.278Z,71.90
2023-04-11T07:09:52.860Z,71.00
2023-04-11T07:12:20.048Z,72.60
2023-04-11T07:14:47.246Z,72.50
2023-04-11T07:17:14.461Z,72.40
2023-04-11T07:19:41.691Z,71.90
2023-04-11T07:22:08.878Z,71.50
2023-04-11T07:24:36.224Z,71.70
2023-04-11T07:27:04.720Z,72.00
2023-04-11T07:29:31.972Z,72.00
2023-04-11T07:31:59.242Z,72.50
2023-04-11T07:34:26.575Z,72.50
2023-04-11T07:36:57.778Z,72.40
2023-04-11T07:39:25.381Z,72.20
2023-04-11T07:41:53.163Z,72.60
2023-04-11T07:44:22.256Z,72.80
2023-04-11T07:46:50.530Z,72.00
2023-04-11T07:49:17.704Z,71.70
2023-04-11T07:51:44.931Z,71.80
2023-04-11T07:54:12.281Z,72.10
2023-04-11T07:56:39.664Z,72.20
2023-04-11T07:59:06.901Z,72.20
2023-04-11T08:01:35.665Z,71.80
2023-04-11T08:04:03.234Z,71.60
2023-04-11T08:06:31.413Z,71.20
2023-04-11T08:09:00.758Z,71.20
2023-04-11T08:11:28.009Z,71.50
2023-04-11T08:13:55.416Z,71.50
2023-04-11T08:16:22.979Z,71.10
2023-04-11T08:18:52.233Z,71.50
2023-04-11T08:21:19.469Z,71.60
2023-04-11T08:23:47.503Z,71.50
2023-04-11T08:26:14.977Z,71.20
2023-04-11T08:28:43.327Z,71.20
2023-04-11T08:31:12.591Z,71.20
2023-04-11T08:33:40.037Z,71.20
2023-04-11T08:36:10.266Z,71.40
2023-04-11T08:38:38.691Z,71.90
2023-04-11T08:41:06.651Z,70.10
2023-04-11T08:43:34.259Z,69.60
2023-04-11T08:46:02.141Z,69.70
2023-04-11T08:48:29.524Z,69.20
2023-04-11T08:50:56.928Z,69.10
2023-04-11T08:53:26.934Z,68.50
2023-04-11T08:55:54.134Z,66.20
2023-04-11T08:58:21.492Z,66.40
2023-04-11T09:00:48.743Z,66.10
2023-04-11T09:03:16.877Z,66.00
2023-04-11T09:05:45.834Z,66.30
2023-04-11T09:08:15.324Z,66.50
2023-04-11T09:10:45.481Z,65.70
2023-04-11T09:13:23.915Z,65.50
2023-04-11T09:16:04.660Z,65.90
2023-04-11T09:18:33.173Z,66.00
2023-04-11T09:21:04.843Z,65.80
2023-04-11T09:23:32.352Z,65.70
2023-04-11T09:26:01.010Z,65.70
2023-04-11T09:28:35.164Z,65.40
2023-04-11T09:31:02.330Z,65.20
2023-04-11T09:33:31.481Z,65.20
2023-04-11T09:35:58.736Z,64.80
2023-04-11T09:38:30.812Z,64.00
2023-04-11T09:40:58.419Z,65.30
2023-04-11T09:43:27.206Z,64.30
2023-04-11T09:46:08.543Z,64.30
2023-04-11T09:48:45.956Z,62.90
2023-04-11T09:51:27.561Z,63.70
2023-04-11T09:54:03.404Z,62.80
2023-04-11T09:56:31.738Z,62.50
2023-04-11T09:59:02.266Z,62.10
2023-04-11T10:01:29.515Z,62.50
2023-04-11T10:03:57.516Z,61.40
2023-04-11T10:06:34.157Z,61.90
2023-04-11T10:09:07.993Z,61.50
2023-04-11T10:11:35.823Z,61.10
2023-04-11T10:14:04.375Z,60.20
2023-04-11T10:16:33.967Z,60.10
2023-04-11T10:19:23.945Z,60.20
2023-04-11T10:21:51.541Z,59.30
2023-04-11T10:24:21.197Z,59.70
2023-04-11T10:26:50.304Z,60.10
2023-04-11T10:29:48.803Z,59.50
2023-04-11T10:32:22.741Z,59.30
2023-04-11T10:35:21.750Z,56.50
2023-04-11T10:37:49.078Z,57.00
2023-04-11T10:40:16.863Z,55.70
2023-04-11T10:42:48.349Z,56.30
2023-04-11T10:45:22.164Z,55.10
2023-04-11T10:48:07.884Z,55.00
2023-04-11T10:50:37.858Z,54.20
2023-04-11T10:53:06.584Z,52.40
2023-04-11T10:55:45.997Z,52.10
2023-04-11T10:58:16.248Z,51.20
2023-04-11T11:01:25.684Z,50.50
2023-04-11T11:03:59.762Z,49.00
2023-04-11T11:06:29.046Z,49.80
2023-04-11T11:08:56.417Z,49.30
2023-04-11T11:11:24.104Z,49.60
2023-04-11T11:13:53.062Z,50.20
2023-04-11T11:16:22.896Z,50.30
2023-04-11T11:18:52.098Z,50.10
2023-04-11T11:21:27.820Z,51.60
2023-04-11T11:23:57.346Z,52.50
2023-04-11T11:26:38.733Z,53.40
2023-04-11T11:29:06.075Z,53.70
2023-04-11T11:31:39.299Z,54.80
2023-04-11T11:34:22.275Z,54.40
2023-04-11T11:36:52.638Z,52.10
2023-04-11T11:39:22.035Z,53.20
2023-04-11T11:41:51.114Z,51.70
2023-04-11T11:44:22.976Z,50.30
2023-04-11T11:47:05.031Z,49.90
2023-04-11T11:49:45.808Z,50.00
2023-04-11T11:52:29.754Z,48.50
2023-04-11T11:54:57.117Z,48.40
2023-04-11T11:57:24.568Z,48.60
2023-04-11T11:59:54.948Z,46.50
2023-04-11T12:02:25.408Z,48.00
2023-04-11T12:04:58.041Z,45.70
2023-04-11T12:07:25.599Z,45.50
2023-04-11T12:09:56.994Z,44.60
2023-04-11T12:12:24.267Z,44.80
2023-04-11T12:14:54.753Z,44.20
2023-04-11T12:17:23.428Z,44.30
2023-04-11T12:19:55.356Z,44.10
2023-04-11T12:22:22.641Z,43.90
2023-04-11T12:24:52.017Z,44.50
2023-04-11T12:27:19.271Z,43.90
2023-04-11T12:29:46.681Z,44.50
2023-04-11T12:32:14.060Z,45.10
2023-04-11T12:34:42.595Z,45.50
2023-04-11T12:37:09.795Z,44.90
2023-04-11T12:39:38.176Z,45.90
2023-04-11T12:42:05.792Z,46.10
2023-04-11T12:44:32.966Z,46.30
2023-04-11T12:47:00.448Z,46.50
2023-04-11T12:49:28.324Z,46.70
2023-04-11T12:51:56.900Z,46.70
2023-04-11T12:54:24.320Z,48.40
2023-04-11T12:56:51.731Z,48.80
2023-04-11T12:59:18.955Z,49.60
2023-04-11T13:01:46.787Z,50.00
2023-04-11T13:04:14.313Z,50.50
2023-04-11T13:06:42.615Z,50.80
2023-04-11T13:09:12.480Z,51.40
2023-04-11T13:11:39.985Z,51.40
2023-04-11T13:14:07.268Z,51.20
2023-04-11T13:16:34.546Z,51.40
2023-04-11T13:19:01.797Z,51.00
2023-04-11T13:21:29.058Z,51.30
2023-04-11T13:23:56.329Z,51.30
2023-04-11T13:26:24.935Z,49.40
2023-04-11T13:28:52.121Z,48.00
2023-04-11T13:31:19.474Z,49.50
2023-04-11T13:33:48.078Z,49.90
2023-04-11T13:36:15.563Z,51.70
2023-04-11T13:38:42.804Z,53.90
2023-04-11T13:41:09.997Z,55.60
2023-04-11T13:43:38.546Z,57.20
2023-04-11T13:46:06.091Z,57.20
2023-04-11T13:48:33.379Z,57.20
2023-04-11T13:51:00.597Z,58.00
2023-04-11T13:53:28.052Z,58.40
2023-04-11T13:55:55.282Z,58.50
2023-04-11T13:58:22.500Z,60.00
2023-04-11T14:00:51.551Z,59.30
2023-04-11T14:03:18.846Z,59.10
2023-04-11T14:05:46.066Z,59.70
2023-04-11T14:08:13.816Z,60.40
2023-04-11T14:10:41.018Z,60.80
2023-04-11T14:13:11.522Z,61.20
2023-04-11T14:15:38.944Z,61.00
2023-04-11T14:18:07.715Z,61.40
2023-04-11T14:20:34.983Z,62.50
2023-04-11T14:23:02.401Z,61.90
2023-04-11T14:25:29.668Z,61.80
2023-04-11T14:27:56.886Z,62.30
2023-04-11T14:30:24.090Z,62.30
2023-04-11T14:32:51.350Z,62.50
2023-04-11T14:35:19.919Z,62.60
2023-04-11T14:37:47.422Z,62.90
2023-04-11T14:40:14.670Z,63.00
2023-04-11T14:42:41.883Z,63.00
2023-04-11T14:45:09.302Z,62.90
2023-04-11T14:47:37.115Z,62.80
2023-04-11T14:50:04.948Z,62.50
2023-04-11T14:52:33.481Z,62.60
2023-04-11T14:55:00.732Z,62.60
2023-04-11T14:57:45.666Z,62.70
2023-04-11T15:00:18.020Z,62.30
2023-04-11T15:02:46.959Z,62.60
2023-04-11T15:05:16.183Z,62.70
2023-04-11T15:07:46.343Z,62.80
2023-04-11T15:10:14.113Z,62.40
2023-04-11T15:12:41.734Z,62.50
2023-04-11T15:15:10.931Z,62.90
2023-04-11T15:17:40.964Z,62.60
2023-04-11T15:20:10.427Z,62.40
2023-04-11T15:22:40.858Z,62.50
2023-04-11T15:25:11.811Z,61.70
2023-04-11T15:27:39.385Z,61.70
2023-04-11T15:30:07.778Z,60.90
2023-04-11T15:32:35.245Z,61.50
2023-04-11T15:35:02.545Z,60.10
2023-04-11T15:37:29.757Z,60.40
2023-04-11T15:39:57.756Z,59.60
2023-04-11T15:42:26.329Z,59.30
2023-04-11T15:44:53.622Z,56.60
2023-04-11T15:47:20.867Z,57.50
2023-04-11T15:49:48.110Z,56.60
2023-04-11T15:52:16.640Z,56.30
2023-04-11T15:54:43.839Z,56.60
2023-04-11T15:57:11.033Z,56.20
2023-04-11T15:59:41.397Z,56.10
2023-04-11T16:02:08.760Z,54.80
2023-04-11T16:04:39.430Z,55.80
2023-04-11T16:07:06.851Z,56.30
2023-04-11T16:09:34.679Z,54.80
2023-04-11T16:12:01.994Z,54.70
2023-04-11T16:14:29.588Z,55.00
2023-04-11T16:16:58.113Z,55.80
2023-04-11T16:19:25.654Z,55.80
2023-04-11T16:21:52.876Z,57.10
2023-04-11T16:24:20.893Z,57.90
2023-04-11T16:26:48.111Z,58.70
2023-04-11T16:29:15.302Z,58.80
2023-04-11T16:31:42.626Z,58.20
2023-04-11T16:34:11.171Z,58.30
2023-04-11T16:36:38.375Z,58.10
2023-04-11T16:39:06.295Z,58.00
2023-04-11T16:41:36.290Z,57.10
2023-04-11T16:44:05.621Z,56.70
2023-04-11T16:46:32.875Z,56.40
2023-04-11T16:49:00.140Z,55.60
2023-04-11T16:51:28.688Z,55.80
2023-04-11T16:53:56.176Z,55.80
2023-04-11T16:56:24.221Z,56.10
2023-04-11T16:58:51.957Z,56.30
2023-04-11T17:01:19.240Z,55.90
2023-04-11T17:03:47.088Z,56.50
2023-04-11T17:06:16.015Z,57.60
2023-04-11T17:08:44.615Z,59.20
2023-04-11T17:11:11.982Z,60.10
2023-04-11T17:13:39.964Z,60.40
2023-04-11T17:16:08.178Z,60.30
2023-04-11T17:18:35.428Z,60.40
2023-04-11T17:21:02.836Z,60.90
2023-04-11T17:23:41.942Z,61.20
2023-04-11T17:26:12.149Z,61.90
2023-04-11T17:28:39.800Z,61.80
2023-04-11T17:31:12.766Z,61.50
2023-04-11T17:33:40.255Z,61.60
2023-04-11T17:36:08.692Z,61.40
2023-04-11T17:38:37.415Z,61.60
2023-04-11T17:41:13.696Z,61.80
2023-04-11T17:43:43.805Z,61.80
2023-04-11T17:46:12.268Z,61.70
2023-04-11T17:48:39.716Z,62.00
2023-04-11T17:51:07.354Z,61.60
2023-04-11T17:53:34.609Z,61.70
2023-04-11T17:56:03.182Z,62.20
2023-04-11T17:58:30.758Z,62.40
2023-04-11T18:00:59.535Z,62.20
2023-04-11T18:03:26.892Z,62.20
2023-04-11T18:05:54.945Z,62.30
2023-04-11T18:08:35.476Z,62.30
2023-04-11T18:11:10.921Z,62.70
2023-04-11T18:13:38.113Z,63.20
2023-04-11T18:16:06.906Z,63.10
2023-04-11T18:18:34.146Z,63.70
2023-04-11T18:21:04.875Z,63.50
2023-04-11T18:23:34.578Z,63.40
2023-04-11T18:26:01.792Z,63.80
2023-04-11T18:28:29.317Z,63.90
2023-04-11T18:30:56.670Z,63.50
2023-04-11T18:33:25.916Z,63.60
2023-04-11T18:35:53.321Z,63.40
2023-04-11T18:38:20.605Z,63.50
2023-04-11T18:40:48.796Z,63.60
2023-04-11T18:43:16.245Z,63.60
2023-04-11T18:45:44.509Z,63.60
2023-04-11T18:48:12.531Z,63.80
2023-04-11T18:50:43.057Z,63.70
2023-04-11T18:53:13.212Z,63.60
2023-04-11T18:55:41.412Z,63.90
2023-04-11T18:58:10.394Z,64.10
2023-04-11T19:00:39.375Z,63.90
2023-04-11T19:03:14.732Z,64.10
2023-04-11T19:05:44.689Z,64.30
2023-04-11T19:08:12.482Z,64.30
2023-04-11T19:10:39.705Z,64.70
2023-04-11T19:13:07.048Z,64.50
2023-04-11T19:15:34.399Z,64.40
2023-04-11T19:18:01.841Z,64.60
2023-04-11T19:20:29.465Z,64.60
2023-04-11T19:22:58.025Z,64.60
2023-04-11T19:25:25.616Z,64.40
2023-04-11T19:27:52.900Z,64.30
2023-04-11T19:30:20.110Z,64.40
2023-04-11T19:32:48.606Z,64.80
2023-04-11T19:35:16.969Z,65.00
2023-04-11T19:37:44.220Z,65.40
2023-04-11T19:40:15.720Z,65.40
2023-04-11T19:42:44.096Z,64.90
2023-04-11T19:45:11.861Z,65.30
2023-04-11T19:47:39.845Z,65.30
2023-04-11T19:50:09.809Z,65.10
2023-04-11T19:52:37.296Z,64.90
2023-04-11T19:55:05.689Z,65.00
2023-04-11T19:57:34.332Z,65.30
2023-04-11T20:00:01.800Z,65.30
2023-04-11T20:02:32.280Z,65.20
2023-04-11T20:05:01.609Z,65.10
2023-04-11T20:07:28.847Z,65.00
2023-04-11T20:09:56.051Z,64.70
2023-04-11T20:12:23.234Z,65.00
2023-04-11T20:14:51.739Z,64.80
2023-04-11T20:17:18.966Z,64.70
2023-04-11T20:19:47.490Z,65.00
2023-04-11T20:22:18.399Z,65.10
2023-04-11T20:24:47.006Z,65.00
2023-04-11T20:27:14.283Z,64.80
2023-04-11T20:29:41.560Z,64.90
2023-04-11T20:32:10.389Z,64.50
2023-04-11T20:34:37.569Z,65.10
2023-04-11T20:37:06.186Z,65.20
2023-04-11T20:39:33.842Z,65.20
2023-04-11T20:42:01.153Z,64.80
2023-04-11T20:44:28.770Z,65.00
2023-04-11T20:46:57.049Z,65.20
2023-04-11T20:49:28.027Z,65.40
2023-04-11T20:51:55.328Z,65.40
2023-04-11T20:54:22.624Z,65.50
2023-04-11T20:56:49.912Z,65.80
2023-04-11T20:59:17.096Z,66.00
2023-04-11T21:01:44.595Z,65.80
2023-04-11T21:04:13.028Z,66.40
2023-04-11T21:06:41.752Z,66.90
2023-04-11T21:09:09.419Z,67.10
2023-04-11T21:11:36.635Z,67.20
2023-04-11T21:14:05.068Z,66.70
2023-04-11T21:16:32.336Z,66.60
2023-04-11T21:18:59.569Z,66.60
2023-04-11T21:21:26.810Z,66.70
2023-04-11T21:23:55.779Z,67.30
2023-04-11T21:26:23.608Z,67.00
2023-04-11T21:28:50.897Z,66.50
2023-04-11T21:31:18.135Z,66.90
2023-04-11T21:33:45.925Z,66.70
2023-04-11T21:36:13.153Z,66.70
2023-04-11T21:38:40.440Z,66.60
2023-04-11T21:41:09.098Z,66.90
2023-04-11T21:43:36.351Z,67.30
2023-04-11T21:46:03.781Z,67.30
2023-04-11T21:48:31.113Z,67.30
2023-04-11T21:50:58.759Z,67.60
2023-04-11T21:53:26.538Z,67.70
2023-04-11T21:55:53.706Z,67.80
2023-04-11T21:58:29.113Z,68.00
2023-04-11T22:00:57.283Z,68.30
2023-04-11T22:03:25.010Z,68.50
2023-04-11T22:05:53.209Z,68.40
2023-04-11T22:08:22.406Z,68.50
2023-04-11T22:10:50.712Z,68.60
2023-04-11T22:13:19.322Z,68.80
2023-04-11T22:15:58.557Z,68.70
2023-04-11T22:18:26.216Z,68.50
2023-04-11T22:20:54.358Z,68.30
2023-04-11T22:23:21.708Z,68.40
2023-04-11T22:25:54.247Z,68.50
2023-04-11T22:28:21.431Z,68.20
2023-04-11T22:30:50.394Z,68.20
2023-04-11T22:33:17.673Z,67.80
2023-04-11T22:35:45.088Z,67.70
2023-04-11T22:38:12.347Z,67.80
2023-04-11T22:40:40.383Z,68.30
2023-04-11T22:43:08.006Z,68.40
2023-04-11T22:45:38.245Z,68.70
2023-04-11T22:48:06.934Z,68.30
2023-04-11T22:50:37.836Z,68.20
2023-04-11T22:53:05.480Z,68.30
2023-04-11T22:55:34.273Z,68.30
2023-04-11T22:58:01.946Z,68.20
2023-04-11T23:00:29.879Z,68.30
2023-04-11T23:02:59.492Z,68.50
2023-04-11T23:05:29.101Z,68.30
2023-04-11T23:07:56.271Z,68.00
2023-04-11T23:10:23.729Z,68.00
2023-04-11T23:12:51.603Z,68.50
2023-04-11T23:15:19.280Z,68.20
2023-04-11T23:17:46.507Z,68.20
2023-04-11T23:20:14.271Z,68.10
2023-04-11T23:22:43.909Z,68.40
2023-04-11T23:25:11.857Z,68.30
2023-04-11T23:27:39.568Z,68.40
2023-04-11T23:30:08.026Z,68.60
2023-04-11T23:32:35.758Z,68.70
2023-04-11T23:35:04.526Z,68.90
2023-04-11T23:37:32.063Z,68.50
2023-04-11T23:40:06.931Z,68.60
2023-04-11T23:42:34.140Z,68.50
2023-04-11T23:45:01.365Z,68.90
2023-04-11T23:47:28.607Z,68.80
2023-04-11T23:49:56.029Z,68.90
2023-04-11T23:52:23.424Z,68.90
2023-04-11T23:54:50.763Z,69.00
2023-04-11T23:57:19.309Z,68.80
2023-04-11T23:59:46.520Z,69.40
